AirNav  
 
airports navaids fix Aviation Fuel pilotshop
 949 users online  

5M4 H L Hopkins-Fordyce Municipal Airport
Fordyce, Arkansas, USA


FAA INFORMATION EFFECTIVE 30 AUGUST 2007

Location

FAA Identifier: 5M4
Lat/Long: 33-50-44.8520N / 092-21-55.9040W
33-50.747533N / 092-21.931733W
33.8457922 / -92.3655289
(estimated)
Elevation: 193 ft. / 59 m (estimated)
Variation: 04E (1985)
From city: 3 miles NE of FORDYCE, AR
Time zone: UTC -5 (UTC -6 during Standard Time)
Zip code: 71742

Airport Operations

Airport use: Open to the public
Activation date: 03/1967
Sectional chart: MEMPHIS
Control tower: no
ARTCC: MEMPHIS CENTER
FSS: JONESBORO FLIGHT SERVICE STATION
NOTAMs facility: JBR (NOTAM-D service available)
Attendance: UNATNDD
Wind indicator: lighted
Segmented circle: no
Lights: DUSK-DAWN
Beacon: white-green (lighted land airport)

Airport Communications

CTAF: 122.9

Nearby radio navigation aids

VOR radial/distance  VOR name  Freq  Var
PBFr218/32.5PINE BLUFF VOR/DME116.0004E
MONr294/36.6MONTICELLO VOR/DME111.6004E

 
NDB name  Hdg/Dist  Freq  Var  ID
WARREN319/22.422604EREN .-. . -.
ARKADELPHIA107/38.927502EADF .- -.. ..-.

Airport Services

Fuel available: 100LL
FUEL AVBL SELF SERVICE WITH CREDIT CARD.
Parking: tiedowns
Airframe service: NONE
Powerplant service: NONE
Bottled oxygen: NONE
Bulk oxygen: NONE

Runway Information

Runway 5/23

Dimensions: 3183 x 60 ft. / 970 x 18 m
Surface: asphalt, in excellent condition
Weight bearing capacity: 
Single wheel: 4000 lbs
Runway edge lights: medium intensity
RUNWAY 5  RUNWAY 23
Latitude: 33-50.571450N33-50.923550N
Longitude: 092-22.164883W092-21.698600W
Elevation: 193.0 ft.186.0 ft.
Gradient: 0.5 0.5
Traffic pattern: leftleft
Runway heading: 044 magnetic, 048 true224 magnetic, 228 true
Markings: nonprecision, in good conditionnonprecision, in good condition
Obstructions: 40 ft. trees, 1050 ft. from runway, 21:1 slope to clear16 ft. road, 850 ft. from runway, 200 ft. right of centerline, 40:1 slope to clear

Airport Ownership and Management from official FAA records

Ownership: Publicly-owned
Owner: CITY OF FORDYCE
101 SOUTH MAIN
FORDYCE, AR 71742
Phone 870-352-2198
Manager: JAMES H SMITH
PO BOX 132
FORDYCE, AR 71742
Phone 870-352-2419

Airport Operational Statistics

Aircraft based on the field: 2
Single engine airplanes: 2
    
Aircraft operations: avg 58/month *
71% local general aviation
29% transient general aviation
* for 12-month period ending 30 June 2007

Additional Remarks

PAY PHONE AVBL.

Instrument Procedures

There are no published instrument procedures at 5M4.

Some nearby airports with instrument procedures:

3M9 - Warren Municipal Airport (22 nm SE)
KCDH - Harrell Field Airport (24 nm SW)
KPBF - Grider Field Airport (29 nm NE)
KLLQ - Monticello Municipal Airport/Ellis Field (33 nm E)
M78 - Malvern Municipal Airport (35 nm NW)
 
Loc | Ops | Rwys | IFR | FBO | Links
Com | Nav | Svcs | Stats | Notes
Area around 5M4 (H L Hopkins-Fordyce Municipal Airport)
 
Road maps at: MapQuest MapPoint Yahoo! Maps Google Rand McNally
Topographic chart at: TopoZone
Satellite photo at: TerraServer Virtual Earth

 
Aerial photo
WARNING: Photo may not be current or correct
Aerial photo of 5M4 (H L Hopkins-Fordyce Municipal Airport)
Photo courtesy of the Arkansas Department of Aeronautics
Taken in the Spring of 2007

Do you have a better or more recent aerial photo of H L Hopkins-Fordyce Municipal Airport that you would like to share? If so, please send us your photo.

 
Sectional chart
Click on chart to expand
Sectional chart courtesy of SkyVector.com

 
Airport distance calculator
Flying to H L Hopkins-Fordyce Municipal Airport? Find the distance to fly.

From to 5M4

Sunrise and sunset
Times for 18-Oct-2007
 Local
(UTC-5)
 Zulu
(UTC)
Morning civil twilight06:5311:53
Sunrise07:1812:18
Sunset18:3123:31
Evening civil twilight18:5723:57

Current date and time
Zulu (UTC)  19-Oct-2007 00:16:48
Local (UTC-5)  19-Oct-2007 19:16:48
 
METAR
KCDH 
24nm SW 
190000Z AUTO 29006KT 10SM 23/08 A2964 RMK AO2
KPBF 
30nm NE 
182353Z AUTO 26008KT 10SM CLR 24/09 A2960 RMK AO2 SLP022 T02440089 10294 20244 53027
KLLQ 
33nm E 
182353Z AUTO 27009KT 10SM CLR 27/12 A2962 RMK AO2 LTG DSNT NE-S SLP027 T02670122 10311 20267 53021
KM89 
38nm NW 
182356Z AUTO 24004KT 10SM CLR 19/09 A2965 RMK AO2 53030 T01940094 10305 20194 SLP052
KELD 
44nm SW 
182353Z AUTO 28004KT 10SM CLR 23/11 A2964 RMK AO2 SLP033 T02330111 10306 20233 53026 TSNO
TAF
KPBF 
30nm NE 
182321Z 190024 25010G22KT P6SM FEW070 FM0100 27009KT P6SM SKC FM0600 28008KT P6SM SKC FM1600 29014KT P6SM SKC
KLLQ 
33nm E 
182321Z 190024 22011G19KT P6SM SKC FM0100 26007KT P6SM SKC FM0600 27006KT P6SM SKC FM1600 29014KT P6SM SKC
NOTAMs
Click for the latest NOTAMs
NOTAMs are issued by the DoD/FAA and will open in a separate window not controlled by AirNav.

 

 
 

FBO, Fuel Providers, and Aircraft Ground Support

 Business Name   Contact    Services / Description  Fuel Prices Comments
H.L. Hopkins-Fordyce Municipal Airport 870-352-2419
no information available

If you are affiliated with H.L. Hopkins-Fordyce Municipal Airport and would like to show here your services, contact info, web link, logo, and more, click here

SS 
100LL 
$3.60 
 Updated 23-Sep-2007
  read  write
SS=Self service
Update Fuel Prices
 

Where to Stay: Hotels, Motels, Resorts, B&Bs, Campgrounds

 In this space we feature lodging establishments that are convenient to the H L Hopkins-Fordyce Municipal Airport. If your hotel/inn/B&B/resort is near the H L Hopkins-Fordyce Municipal Airport, provides convenient transportation, or is otherwise attractive to pilots, flight crews, and airport users, consider listing it here.  
Feature A Hotel
 

Hotels near H L Hopkins-Fordyce Municipal Airport

Miles Price ($)
DAYS INN FORDYCE 4.6 66-95

Distances are approximate, and may vary depending on the actual route traveled and the location of the travel start on the airport.
    
 

Would you like to see your business listed on this page?

 If your business provides an interesting product or service to pilots, flight crews, aircraft, or users of the H L Hopkins-Fordyce Municipal Airport, you should consider listing it here.  To start the listing process, click on the button below
 
Add a business
 

Other Pages about H L Hopkins-Fordyce Municipal Airport

Update a link
 
Copyright © AirNav, LLC. All rights reserved. Privacy Policy  Contact